createdAt,value
2022-09-06T00:02:34.088Z,4.85
2022-09-06T00:05:21.041Z,6.78
2022-09-06T00:08:01.158Z,6.78
2022-09-06T00:10:49.014Z,4.70
2022-09-06T00:13:29.142Z,7.45
2022-09-06T00:16:22.073Z,7.15
2022-09-06T00:19:10.014Z,5.65
2022-09-06T00:21:57.088Z,6.00
2022-09-06T00:24:37.001Z,5.68
2022-09-06T00:27:24.097Z,6.22
2022-09-06T00:30:04.006Z,6.57
2022-09-06T00:32:51.090Z,7.97
2022-09-06T00:35:32.045Z,7.05
2022-09-06T00:38:19.081Z,6.65
2022-09-06T00:40:59.014Z,5.82
2022-09-06T00:43:39.938Z,7.15
2022-09-06T00:46:37.103Z,7.32
2022-09-06T00:49:36.013Z,6.95
2022-09-06T00:52:19.780Z,7.53
2022-09-06T00:55:07.017Z,6.95
2022-09-06T00:57:50.882Z,7.60
2022-09-06T01:00:38.024Z,10.43
2022-09-06T01:03:31.996Z,8.50
2022-09-06T01:06:28.027Z,8.60
2022-09-06T01:09:36.101Z,7.95
2022-09-06T01:12:39.026Z,8.80
2022-09-06T01:15:38.107Z,8.52
2022-09-06T01:19:01.029Z,8.88
2022-09-06T01:21:44.067Z,8.10
2022-09-06T01:24:40.046Z,7.28
2022-09-06T01:27:42.040Z,6.63
2022-09-06T01:30:23.103Z,7.60
2022-09-06T01:33:30.032Z,7.47
2022-09-06T01:36:24.022Z,10.07
2022-09-06T01:39:04.097Z,7.60
2022-09-06T01:41:51.018Z,9.30
2022-09-06T01:44:41.045Z,7.25
2022-09-06T01:47:31.029Z,6.47
2022-09-06T01:50:27.043Z,9.90
2022-09-06T01:53:47.087Z,8.85
2022-09-06T01:56:38.050Z,7.47
2022-09-06T01:59:27.482Z,8.98
2022-09-06T02:02:22.070Z,11.15
2022-09-06T02:05:20.033Z,7.90
2022-09-06T02:08:13.028Z,8.30
2022-09-06T02:11:07.705Z,7.22
2022-09-06T02:14:20.021Z,9.38
2022-09-06T02:17:02.939Z,8.57
2022-09-06T02:20:00.013Z,9.15
2022-09-06T02:22:51.045Z,9.13
2022-09-06T02:25:50.042Z,10.02
2022-09-06T02:28:37.047Z,8.93
2022-09-06T02:31:32.058Z,8.82
2022-09-06T02:34:23.084Z,9.52
2022-09-06T02:37:04.037Z,9.18
2022-09-06T02:39:51.109Z,9.95
2022-09-06T02:42:32.050Z,10.75
2022-09-06T02:45:19.100Z,16.88
2022-09-06T02:47:59.017Z,9.18
2022-09-06T02:50:39.517Z,9.48
2022-09-06T02:53:27.029Z,9.00
2022-09-06T02:56:14.149Z,10.32
2022-09-06T02:58:54.038Z,9.45
2022-09-06T03:01:34.770Z,12.57
2022-09-06T03:04:21.038Z,11.10
2022-09-06T03:07:08.082Z,9.68
2022-09-06T03:09:48.039Z,10.45
2022-09-06T03:12:35.041Z,10.95
2022-09-06T03:15:16.096Z,9.35
2022-09-06T03:18:07.037Z,10.82
2022-09-06T03:20:47.159Z,9.45
2022-09-06T03:23:35.045Z,13.13
2022-09-06T03:26:22.033Z,9.55
2022-09-06T03:29:09.097Z,11.63
2022-09-06T03:31:49.040Z,10.68
2022-09-06T03:34:29.546Z,11.07
2022-09-06T03:37:16.049Z,11.10
2022-09-06T03:40:03.082Z,9.65
2022-09-06T03:42:43.148Z,12.93
2022-09-06T03:45:30.086Z,13.52
2022-09-06T03:48:10.094Z,11.80
2022-09-06T03:51:01.042Z,10.48
2022-09-06T03:53:41.317Z,11.38
2022-09-06T03:56:28.045Z,12.10
2022-09-06T03:59:08.152Z,10.63
2022-09-06T04:01:55.096Z,9.93
2022-09-06T04:04:42.094Z,10.73
2022-09-06T04:07:22.046Z,9.52
2022-09-06T04:10:10.048Z,14.15
2022-09-06T04:12:51.101Z,12.90
2022-09-06T04:15:38.050Z,9.80
2022-09-06T04:18:18.126Z,11.00
2022-09-06T04:21:05.056Z,10.02
2022-09-06T04:23:45.090Z,9.32
2022-09-06T04:26:32.054Z,9.57
2022-09-06T04:29:12.118Z,10.00
2022-09-06T04:31:59.079Z,8.95
2022-09-06T04:34:46.062Z,9.38
2022-09-06T04:37:33.086Z,10.68
2022-09-06T04:40:14.069Z,11.63
2022-09-06T04:43:01.126Z,10.05
2022-09-06T04:45:41.096Z,8.95
2022-09-06T04:48:28.223Z,9.35
2022-09-06T04:51:08.047Z,7.82
2022-09-06T04:53:55.137Z,10.50
2022-09-06T04:56:35.045Z,7.70
2022-09-06T04:59:15.532Z,7.00
2022-09-06T05:02:02.123Z,10.77
2022-09-06T05:04:49.121Z,7.47
2022-09-06T05:07:29.061Z,7.50
2022-09-06T05:10:16.053Z,5.95
2022-09-06T05:13:01.122Z,7.47
2022-09-06T05:15:48.060Z,7.13
2022-09-06T05:18:28.209Z,8.23
2022-09-06T05:21:15.061Z,7.80
2022-09-06T05:23:58.456Z,6.70
2022-09-06T05:26:45.090Z,7.50
2022-09-06T05:29:28.761Z,8.43
2022-09-06T05:32:17.066Z,7.88
2022-09-06T05:34:57.118Z,8.98
2022-09-06T05:37:44.073Z,8.13
2022-09-06T05:40:24.141Z,8.23
2022-09-06T05:43:11.071Z,12.23
2022-09-06T05:45:51.172Z,9.55
2022-09-06T05:48:38.155Z,10.70
2022-09-06T05:51:27.076Z,8.75
2022-09-06T05:54:14.115Z,8.55
2022-09-06T05:56:54.072Z,13.63
2022-09-06T05:59:41.076Z,9.57
2022-09-06T06:02:36.118Z,10.43
2022-09-06T06:05:23.073Z,8.48
2022-09-06T06:08:10.118Z,9.55
2022-09-06T06:10:50.571Z,9.50
2022-09-06T06:13:38.065Z,15.57
2022-09-06T06:16:20.662Z,10.90
2022-09-06T06:19:07.071Z,12.48
2022-09-06T06:21:55.809Z,8.30
2022-09-06T06:24:35.081Z,12.60
2022-09-06T06:27:22.109Z,11.32
2022-09-06T06:30:02.074Z,10.88
2022-09-06T06:32:42.535Z,8.93
2022-09-06T06:35:29.075Z,9.68
2022-09-06T06:38:16.073Z,10.25
2022-09-06T06:41:06.528Z,10.98
2022-09-06T06:43:54.071Z,12.95
2022-09-06T06:46:43.068Z,9.73
2022-09-06T06:49:31.089Z,10.32
2022-09-06T06:52:11.158Z,8.98
2022-09-06T06:54:58.072Z,17.60
2022-09-06T06:57:38.162Z,15.60
2022-09-06T07:00:28.166Z,43.55
2022-09-06T07:03:23.090Z,53.97
2022-09-06T07:06:11.672Z,54.28
2022-09-06T07:09:00.096Z,18.83
2022-09-06T07:11:47.076Z,12.10
2022-09-06T07:14:34.073Z,10.68
2022-09-06T07:17:21.138Z,12.82
2022-09-06T07:20:16.732Z,7.82
2022-09-06T07:26:11.082Z,10.75
2022-09-06T07:29:10.092Z,8.70
2022-09-06T07:32:13.432Z,8.20
2022-09-06T07:34:53.202Z,9.07
2022-09-06T07:37:40.079Z,10.38
2022-09-06T07:40:20.141Z,8.75
2022-09-06T07:43:07.107Z,6.45
2022-09-06T07:45:47.554Z,9.38
2022-09-06T07:48:38.093Z,8.15
2022-09-06T07:51:34.101Z,10.07
2022-09-06T07:54:36.365Z,10.60
2022-09-06T07:57:16.139Z,9.95
2022-09-06T08:00:03.069Z,7.05
2022-09-06T08:02:52.082Z,8.68
2022-09-06T08:11:46.088Z,9.02
2022-09-06T08:14:26.164Z,9.45
2022-09-06T08:17:13.119Z,9.75
2022-09-06T08:19:53.194Z,7.63
2022-09-06T08:22:40.107Z,8.93
2022-09-06T08:25:20.356Z,6.15
2022-09-06T08:28:07.122Z,6.28
2022-09-06T08:30:54.099Z,6.25
2022-09-06T08:33:42.179Z,7.00
2022-09-06T08:36:22.102Z,5.20
2022-09-06T08:39:12.153Z,6.55
2022-09-06T08:42:09.119Z,5.00
2022-09-06T08:45:02.228Z,7.72
2022-09-06T08:47:42.118Z,4.93
2022-09-06T08:50:30.187Z,5.93
2022-09-06T08:53:24.125Z,6.93
2022-09-06T08:56:30.168Z,5.05
2022-09-06T08:59:21.121Z,5.63
2022-09-06T09:02:14.780Z,5.60
2022-09-06T09:05:11.101Z,6.03
2022-09-06T09:08:27.293Z,4.90
2022-09-06T09:11:32.105Z,5.28
2022-09-06T09:14:20.199Z,6.35
2022-09-06T09:17:13.114Z,5.70
2022-09-06T09:20:00.189Z,4.90
2022-09-06T09:22:48.134Z,5.13
2022-09-06T09:25:30.186Z,7.03
2022-09-06T09:28:24.175Z,3.83
2022-09-06T09:31:11.168Z,4.75
2022-09-06T09:33:52.360Z,4.55
2022-09-06T09:36:39.135Z,5.78
2022-09-06T09:39:26.242Z,3.05
2022-09-06T09:42:06.123Z,4.07
2022-09-06T09:44:53.228Z,3.90
2022-09-06T09:47:38.113Z,4.05
2022-09-06T09:50:43.115Z,5.03
2022-09-06T09:53:26.969Z,5.60
2022-09-06T09:56:13.132Z,3.95
2022-09-06T09:58:53.680Z,3.42
2022-09-06T10:01:41.125Z,5.95
2022-09-06T10:07:34.117Z,4.07
2022-09-06T10:10:20.185Z,3.85
2022-09-06T10:13:25.127Z,4.68
2022-09-06T10:16:07.245Z,4.43
2022-09-06T10:18:59.129Z,5.85
2022-09-06T10:21:39.194Z,6.97
2022-09-06T10:27:36.099Z,5.25
2022-09-06T10:30:26.142Z,5.03
2022-09-06T10:33:45.129Z,3.65
2022-09-06T10:37:09.191Z,6.90
2022-09-06T10:40:02.202Z,6.10
2022-09-06T10:42:54.087Z,3.70
2022-09-06T10:45:45.136Z,3.00
2022-09-06T10:48:52.132Z,4.15
2022-09-06T10:51:32.230Z,4.97
2022-09-06T10:54:27.141Z,4.15
2022-09-06T11:00:23.642Z,3.50
2022-09-06T11:06:32.144Z,3.22
2022-09-06T11:09:36.218Z,3.25
2022-09-06T11:12:36.154Z,3.97
2022-09-06T11:15:20.260Z,3.17
2022-09-06T11:18:25.199Z,4.03
2022-09-06T11:21:31.267Z,3.83
2022-09-06T11:24:33.170Z,4.28
2022-09-06T11:27:34.252Z,4.45
2022-09-06T11:30:23.166Z,4.55
2022-09-06T11:33:31.361Z,3.38
2022-09-06T11:36:41.157Z,3.97
2022-09-06T11:43:09.160Z,7.15
2022-09-06T11:46:03.229Z,4.00
2022-09-06T11:49:12.219Z,3.70
2022-09-06T11:51:53.149Z,4.70
2022-09-06T11:54:49.185Z,4.25
2022-09-06T11:57:30.158Z,2.90
2022-09-06T12:00:20.238Z,2.40
2022-09-06T12:06:26.165Z,3.80
2022-09-06T12:09:07.205Z,4.18
2022-09-06T12:11:55.162Z,5.30
2022-09-06T12:14:42.164Z,3.13
2022-09-06T12:17:31.163Z,4.05
2022-09-06T12:20:19.149Z,5.20
2022-09-06T12:22:59.734Z,3.20
2022-09-06T12:25:49.175Z,6.85
2022-09-06T12:28:56.610Z,3.33
2022-09-06T12:32:07.160Z,5.03
2022-09-06T12:38:06.849Z,5.80
2022-09-06T12:40:58.343Z,5.50
2022-09-06T12:43:38.229Z,4.53
2022-09-06T12:46:25.181Z,5.85
2022-09-06T12:49:16.235Z,9.60
2022-09-06T12:52:19.175Z,6.65
2022-09-06T12:54:59.242Z,4.90
2022-09-06T12:57:54.185Z,6.22
2022-09-06T13:00:43.285Z,4.00
2022-09-06T13:03:56.172Z,4.72
2022-09-06T13:06:50.205Z,7.38
2022-09-06T13:09:32.288Z,6.32
2022-09-06T13:12:46.189Z,5.07
2022-09-06T13:15:31.343Z,8.88
2022-09-06T13:18:42.185Z,4.93
2022-09-06T13:21:34.276Z,6.30
2022-09-06T13:24:31.186Z,5.68
2022-09-06T13:27:31.346Z,5.72
2022-09-06T13:30:52.256Z,5.80
2022-09-06T13:33:33.271Z,6.57
2022-09-06T13:36:20.190Z,6.90
2022-09-06T13:39:03.347Z,6.47
2022-09-06T13:41:51.189Z,7.53
2022-09-06T13:44:39.255Z,6.05
2022-09-06T13:47:26.184Z,5.05
2022-09-06T13:50:06.227Z,5.60
2022-09-06T13:52:53.199Z,7.35
2022-09-06T13:55:55.176Z,5.07
2022-09-06T13:58:43.189Z,6.63
2022-09-06T14:01:23.329Z,6.15
2022-09-06T14:04:11.190Z,6.75
2022-09-06T14:06:51.361Z,8.00
2022-09-06T14:09:38.190Z,4.00
2022-09-06T14:12:18.257Z,5.60
2022-09-06T14:15:05.205Z,6.78
2022-09-06T14:17:46.725Z,5.82
2022-09-06T14:20:33.204Z,6.32
2022-09-06T14:23:21.195Z,6.63
2022-09-06T14:26:10.575Z,5.32
2022-09-06T14:28:50.224Z,4.72
2022-09-06T14:31:32.590Z,5.72
2022-09-06T14:34:19.197Z,6.07
2022-09-06T14:37:09.251Z,4.93
2022-09-06T14:39:51.244Z,6.72
2022-09-06T14:42:38.239Z,6.20
2022-09-06T14:45:18.217Z,7.97
2022-09-06T14:47:58.690Z,5.05
2022-09-06T14:50:45.214Z,5.70
2022-09-06T14:53:40.085Z,6.78
2022-09-06T14:56:27.208Z,4.55
2022-09-06T14:59:09.115Z,6.68
2022-09-06T15:01:56.250Z,5.13
2022-09-06T15:04:50.208Z,5.05
2022-09-06T15:07:38.120Z,7.43
2022-09-06T15:10:18.213Z,7.22
2022-09-06T15:13:08.378Z,4.38
2022-09-06T15:15:48.240Z,4.32
2022-09-06T15:18:35.241Z,5.40
2022-09-06T15:21:20.286Z,6.72
2022-09-06T15:24:11.678Z,5.47
2022-09-06T15:26:52.473Z,6.38
2022-09-06T15:29:39.210Z,5.50
2022-09-06T15:32:19.261Z,5.30
2022-09-06T15:35:07.213Z,7.55
2022-09-06T15:37:47.260Z,6.20
2022-09-06T15:40:34.221Z,5.97
2022-09-06T15:43:21.230Z,5.32
2022-09-06T15:46:15.310Z,6.75
2022-09-06T15:49:03.944Z,5.40
2022-09-06T15:51:46.607Z,6.20
2022-09-06T15:54:53.213Z,5.80
2022-09-06T15:57:40.239Z,6.45
2022-09-06T16:00:27.285Z,5.80
2022-09-06T16:03:07.244Z,5.28
2022-09-06T16:08:55.265Z,7.10
2022-09-06T16:11:43.338Z,5.32
2022-09-06T16:14:24.207Z,5.53
2022-09-06T16:17:04.804Z,6.18
2022-09-06T16:19:52.214Z,5.07
2022-09-06T16:22:39.326Z,7.22
2022-09-06T16:25:19.217Z,5.93
2022-09-06T16:28:06.269Z,10.38
2022-09-06T16:30:50.267Z,7.40
2022-09-06T16:33:39.213Z,7.43
2022-09-06T16:36:19.289Z,7.00
2022-09-06T16:39:06.224Z,6.45
2022-09-06T16:41:51.286Z,5.43
2022-09-06T16:44:38.221Z,9.48
2022-09-06T16:47:25.205Z,5.60
2022-09-06T16:50:12.224Z,6.63
2022-09-06T16:52:52.658Z,7.65
2022-09-06T16:55:44.238Z,7.65
2022-09-06T16:58:24.315Z,8.27
2022-09-06T17:01:11.314Z,6.15
2022-09-06T17:03:59.279Z,4.80
2022-09-06T17:06:40.224Z,5.88
2022-09-06T17:09:27.363Z,4.75
2022-09-06T17:12:07.250Z,5.57
2022-09-06T17:14:54.378Z,7.28
2022-09-06T17:17:34.238Z,8.50
2022-09-06T17:20:21.284Z,6.82
2022-09-06T17:23:01.239Z,4.97
2022-09-06T17:25:43.249Z,4.72
2022-09-06T17:28:30.252Z,5.32
2022-09-06T17:31:19.940Z,4.60
2022-09-06T17:34:02.363Z,5.32
2022-09-06T17:36:49.233Z,5.93
2022-09-06T17:39:29.574Z,5.22
2022-09-06T17:42:16.252Z,7.43
2022-09-06T17:45:03.224Z,6.85
2022-09-06T17:47:44.046Z,6.05
2022-09-06T17:50:30.243Z,5.68
2022-09-06T17:53:10.980Z,5.72
2022-09-06T17:55:58.260Z,5.10
2022-09-06T17:58:40.867Z,4.07
2022-09-06T18:01:28.289Z,5.80
2022-09-06T18:04:24.249Z,4.40
2022-09-06T18:07:04.815Z,4.50
2022-09-06T18:09:51.268Z,3.85
2022-09-06T18:12:38.983Z,6.22
2022-09-06T18:15:18.249Z,17.40
2022-09-06T18:18:05.231Z,13.68
2022-09-06T18:20:45.485Z,18.45
2022-09-06T18:23:32.246Z,15.10
2022-09-06T18:26:15.378Z,21.30
2022-09-06T18:29:02.253Z,9.57
2022-09-06T18:31:42.779Z,13.55
2022-09-06T18:34:29.242Z,15.23
2022-09-06T18:37:16.239Z,11.85
2022-09-06T18:40:03.561Z,13.88
2022-09-06T18:42:43.404Z,8.13
2022-09-06T18:45:30.455Z,13.23
2022-09-06T18:48:10.991Z,10.88
2022-09-06T18:50:59.848Z,7.00
2022-09-06T18:53:47.329Z,9.55
2022-09-06T18:56:35.540Z,9.23
2022-09-06T18:59:15.429Z,9.35
2022-09-06T19:02:02.351Z,10.63
2022-09-06T19:04:56.251Z,11.50
2022-09-06T19:07:43.249Z,7.05
2022-09-06T19:10:30.274Z,7.97
2022-09-06T19:13:17.257Z,11.05
2022-09-06T19:15:57.312Z,7.93
2022-09-06T19:18:45.280Z,6.70
2022-09-06T19:21:27.464Z,7.00
2022-09-06T19:24:16.281Z,6.53
2022-09-06T19:26:56.393Z,11.02
2022-09-06T19:29:43.248Z,9.82
2022-09-06T19:32:23.309Z,7.55
2022-09-06T19:35:10.253Z,8.48
2022-09-06T19:37:50.432Z,6.88
2022-09-06T19:40:37.392Z,6.05
2022-09-06T19:43:17.631Z,6.82
2022-09-06T19:46:08.262Z,8.45
2022-09-06T19:48:56.450Z,5.68
2022-09-06T19:51:43.278Z,7.90
2022-09-06T19:54:23.314Z,8.85
2022-09-06T19:57:10.290Z,9.82
2022-09-06T19:59:50.308Z,9.13
2022-09-06T20:02:37.316Z,9.25
2022-09-06T20:05:31.280Z,15.13
2022-09-06T20:08:18.269Z,7.47
2022-09-06T20:11:10.294Z,5.38
2022-09-06T20:13:57.321Z,6.05
2022-09-06T20:16:44.336Z,6.07
2022-09-06T20:19:31.322Z,5.63
2022-09-06T20:22:11.276Z,6.20
2022-09-06T20:24:51.839Z,5.40
2022-09-06T20:27:41.374Z,5.32
2022-09-06T20:30:32.432Z,6.25
2022-09-06T20:33:12.274Z,9.02
2022-09-06T20:36:02.913Z,8.27
2022-09-06T20:38:51.278Z,9.68
2022-09-06T20:41:38.309Z,8.82
2022-09-06T20:44:18.276Z,9.45
2022-09-06T20:47:05.303Z,9.13
2022-09-06T20:49:52.294Z,13.85
2022-09-06T20:52:32.753Z,12.75
2022-09-06T20:55:20.381Z,9.10
2022-09-06T20:58:07.385Z,9.85
2022-09-06T21:00:47.420Z,16.52
2022-09-06T21:03:27.810Z,11.23
2022-09-06T21:06:14.281Z,13.07
2022-09-06T21:09:02.348Z,11.55
2022-09-06T21:11:43.295Z,7.80
2022-09-06T21:14:30.269Z,9.95
2022-09-06T21:17:10.467Z,7.57
2022-09-06T21:19:57.266Z,10.35
2022-09-06T21:22:44.277Z,8.45
2022-09-06T21:25:24.768Z,13.05
2022-09-06T21:28:11.302Z,8.25
2022-09-06T21:31:08.551Z,11.63
2022-09-06T21:33:54.273Z,10.70
2022-09-06T21:36:43.298Z,10.07
2022-09-06T21:39:23.361Z,8.52
2022-09-06T21:42:10.308Z,10.25
2022-09-06T21:44:50.335Z,8.88
2022-09-06T21:47:38.305Z,9.35
2022-09-06T21:50:25.280Z,8.88
2022-09-06T21:53:12.329Z,10.52
2022-09-06T21:55:52.289Z,10.50
2022-09-06T21:58:33.349Z,7.07
2022-09-06T22:01:22.348Z,9.63
2022-09-06T22:04:17.285Z,6.38
2022-09-06T22:07:04.309Z,7.35
2022-09-06T22:09:44.393Z,8.25
2022-09-06T22:12:31.287Z,7.25
2022-09-06T22:15:18.292Z,10.27
2022-09-06T22:18:05.291Z,9.13
2022-09-06T22:20:52.293Z,9.30
2022-09-06T22:23:39.305Z,7.72
2022-09-06T22:26:26.316Z,10.98
2022-09-06T22:29:09.462Z,7.82
2022-09-06T22:31:56.338Z,11.43
2022-09-06T22:34:37.221Z,9.18
2022-09-06T22:37:25.301Z,13.77
2022-09-06T22:40:06.381Z,8.05
2022-09-06T22:42:53.314Z,11.13
2022-09-06T22:45:40.481Z,10.35
2022-09-06T22:48:20.314Z,10.40
2022-09-06T22:51:08.354Z,11.07
2022-09-06T22:53:48.297Z,7.57
2022-09-06T22:56:35.812Z,7.05
2022-09-06T22:59:15.314Z,7.00
2022-09-06T23:02:02.355Z,9.68
2022-09-06T23:04:42.354Z,7.25
2022-09-06T23:07:29.387Z,7.65
2022-09-06T23:10:09.294Z,6.40
2022-09-06T23:12:52.545Z,7.07
2022-09-06T23:15:39.307Z,6.20
2022-09-06T23:18:19.765Z,9.73
2022-09-06T23:21:06.307Z,6.90
2022-09-06T23:23:55.296Z,7.50
2022-09-06T23:26:37.470Z,7.32
2022-09-06T23:29:24.301Z,5.50
2022-09-06T23:32:04.372Z,6.68
2022-09-06T23:34:51.302Z,6.78
2022-09-06T23:37:31.373Z,6.22
2022-09-06T23:40:18.390Z,7.28
2022-09-06T23:43:05.309Z,7.57
2022-09-06T23:45:45.794Z,8.40
2022-09-06T23:48:32.452Z,4.68
2022-09-06T23:51:20.448Z,6.03
2022-09-06T23:54:01.314Z,6.35
2022-09-06T23:56:48.385Z,6.00
2022-09-06T23:59:28.320Z,4.53
